sensor_id;sensor_type;location;lat;lon;timestamp;temperature;humidity
32811;DHT22;65470;47.324;8.548;2023-02-28T00:01:12;2.10;99.90
32811;DHT22;65470;47.324;8.548;2023-02-28T00:03:38;2.10;99.90
32811;DHT22;65470;47.324;8.548;2023-02-28T00:06:05;2.20;99.90
32811;DHT22;65470;47.324;8.548;2023-02-28T00:08:31;2.10;99.90
32811;DHT22;65470;47.324;8.548;2023-02-28T00:11:01;2.10;99.90
32811;DHT22;65470;47.324;8.548;2023-02-28T00:13:28;2.00;99.90
32811;DHT22;65470;47.324;8.548;2023-02-28T00:16:05;2.00;99.90
32811;DHT22;65470;47.324;8.548;2023-02-28T00:18:31;2.00;99.90
32811;DHT22;65470;47.324;8.548;2023-02-28T00:20:57;1.90;99.90
32811;DHT22;65470;47.324;8.548;2023-02-28T00:23:23;1.80;99.90
32811;DHT22;65470;47.324;8.548;2023-02-28T00:25:50;1.90;99.90
32811;DHT22;65470;47.324;8.548;2023-02-28T00:28:15;1.90;99.90
32811;DHT22;65470;47.324;8.548;2023-02-28T00:30:41;1.90;99.90
32811;DHT22;65470;47.324;8.548;2023-02-28T00:33:07;2.00;99.90
32811;DHT22;65470;47.324;8.548;2023-02-28T00:35:32;2.10;99.90
32811;DHT22;65470;47.324;8.548;2023-02-28T00:37:58;2.10;99.90
32811;DHT22;65470;47.324;8.548;2023-02-28T00:40:24;2.10;99.90
32811;DHT22;65470;47.324;8.548;2023-02-28T00:42:49;2.10;99.90
32811;DHT22;65470;47.324;8.548;2023-02-28T00:45:15;2.30;99.90
32811;DHT22;65470;47.324;8.548;2023-02-28T00:47:40;2.20;99.90
32811;DHT22;65470;47.324;8.548;2023-02-28T00:50:07;2.20;99.90
32811;DHT22;65470;47.324;8.548;2023-02-28T00:52:33;2.20;99.90
32811;DHT22;65470;47.324;8.548;2023-02-28T00:54:59;2.30;99.90
32811;DHT22;65470;47.324;8.548;2023-02-28T00:57:25;2.30;99.90
32811;DHT22;65470;47.324;8.548;2023-02-28T00:59:51;2.20;99.90
32811;DHT22;65470;47.324;8.548;2023-02-28T01:02:20;2.10;99.90
32811;DHT22;65470;47.324;8.548;2023-02-28T01:04:46;2.20;99.90
32811;DHT22;65470;47.324;8.548;2023-02-28T01:07:12;2.20;99.90
32811;DHT22;65470;47.324;8.548;2023-02-28T01:09:40;2.20;99.90
32811;DHT22;65470;47.324;8.548;2023-02-28T01:12:07;2.20;99.90
32811;DHT22;65470;47.324;8.548;2023-02-28T01:14:34;2.30;99.90
32811;DHT22;65470;47.324;8.548;2023-02-28T01:17:00;2.30;99.90
32811;DHT22;65470;47.324;8.548;2023-02-28T01:19:25;2.30;99.90
32811;DHT22;65470;47.324;8.548;2023-02-28T01:21:51;2.20;99.90
32811;DHT22;65470;47.324;8.548;2023-02-28T01:24:17;2.10;99.90
32811;DHT22;65470;47.324;8.548;2023-02-28T01:26:42;2.10;99.90
32811;DHT22;65470;47.324;8.548;2023-02-28T01:29:08;2.10;99.90
32811;DHT22;65470;47.324;8.548;2023-02-28T01:31:34;2.10;99.90
32811;DHT22;65470;47.324;8.548;2023-02-28T01:33:59;2.00;99.90
32811;DHT22;65470;47.324;8.548;2023-02-28T01:36:25;2.10;99.90
32811;DHT22;65470;47.324;8.548;2023-02-28T01:38:51;2.10;99.90
32811;DHT22;65470;47.324;8.548;2023-02-28T01:41:29;2.20;99.90
32811;DHT22;65470;47.324;8.548;2023-02-28T01:44:02;2.20;99.90
32811;DHT22;65470;47.324;8.548;2023-02-28T01:46:32;2.20;99.90
32811;DHT22;65470;47.324;8.548;2023-02-28T01:49:00;2.20;99.90
32811;DHT22;65470;47.324;8.548;2023-02-28T01:51:37;2.20;99.90
32811;DHT22;65470;47.324;8.548;2023-02-28T01:54:10;2.10;99.90
32811;DHT22;65470;47.324;8.548;2023-02-28T01:56:49;2.10;99.90
32811;DHT22;65470;47.324;8.548;2023-02-28T01:59:24;2.00;99.90
32811;DHT22;65470;47.324;8.548;2023-02-28T02:01:51;2.10;99.90
32811;DHT22;65470;47.324;8.548;2023-02-28T02:04:17;2.10;99.90
32811;DHT22;65470;47.324;8.548;2023-02-28T02:06:44;2.10;99.90
32811;DHT22;65470;47.324;8.548;2023-02-28T02:09:11;2.10;99.90
32811;DHT22;65470;47.324;8.548;2023-02-28T02:11:40;2.10;99.90
32811;DHT22;65470;47.324;8.548;2023-02-28T02:14:30;2.20;99.90
32811;DHT22;65470;47.324;8.548;2023-02-28T02:17:19;2.10;99.90
32811;DHT22;65470;47.324;8.548;2023-02-28T02:25:54;2.10;99.90
32811;DHT22;65470;47.324;8.548;2023-02-28T02:34:39;2.20;99.90
32811;DHT22;65470;47.324;8.548;2023-02-28T02:45:54;2.20;99.90
32811;DHT22;65470;47.324;8.548;2023-02-28T02:48:27;2.10;99.90
32811;DHT22;65470;47.324;8.548;2023-02-28T02:50:57;2.20;99.90
32811;DHT22;65470;47.324;8.548;2023-02-28T02:53:36;2.20;99.90
32811;DHT22;65470;47.324;8.548;2023-02-28T02:56:03;2.20;99.90
32811;DHT22;65470;47.324;8.548;2023-02-28T02:58:33;2.20;99.90
32811;DHT22;65470;47.324;8.548;2023-02-28T03:04:24;2.10;99.90
32811;DHT22;65470;47.324;8.548;2023-02-28T03:06:51;2.20;99.90
32811;DHT22;65470;47.324;8.548;2023-02-28T03:09:25;2.20;99.90
32811;DHT22;65470;47.324;8.548;2023-02-28T03:11:52;2.00;99.90
32811;DHT22;65470;47.324;8.548;2023-02-28T03:20:17;2.10;99.90
32811;DHT22;65470;47.324;8.548;2023-02-28T03:22:56;2.10;99.90
32811;DHT22;65470;47.324;8.548;2023-02-28T03:28:35;2.20;99.90
32811;DHT22;65470;47.324;8.548;2023-02-28T03:31:30;2.20;99.90
32811;DHT22;65470;47.324;8.548;2023-02-28T03:34:07;2.20;99.90
32811;DHT22;65470;47.324;8.548;2023-02-28T03:36:38;2.20;99.90
32811;DHT22;65470;47.324;8.548;2023-02-28T03:39:26;2.20;99.90
32811;DHT22;65470;47.324;8.548;2023-02-28T03:42:12;2.20;99.90
32811;DHT22;65470;47.324;8.548;2023-02-28T03:44:49;2.20;99.90
32811;DHT22;65470;47.324;8.548;2023-02-28T03:47:33;2.10;99.90
32811;DHT22;65470;47.324;8.548;2023-02-28T03:50:11;2.10;99.90
32811;DHT22;65470;47.324;8.548;2023-02-28T03:52:47;2.10;99.90
32811;DHT22;65470;47.324;8.548;2023-02-28T03:55:15;2.10;99.90
32811;DHT22;65470;47.324;8.548;2023-02-28T03:58:04;2.10;99.90
32811;DHT22;65470;47.324;8.548;2023-02-28T04:00:54;2.10;99.90
32811;DHT22;65470;47.324;8.548;2023-02-28T04:03:20;2.10;99.90
32811;DHT22;65470;47.324;8.548;2023-02-28T04:05:55;2.00;99.90
32811;DHT22;65470;47.324;8.548;2023-02-28T04:08:22;2.00;99.90
32811;DHT22;65470;47.324;8.548;2023-02-28T04:11:06;2.10;99.90
32811;DHT22;65470;47.324;8.548;2023-02-28T04:13:32;2.10;99.90
32811;DHT22;65470;47.324;8.548;2023-02-28T04:15:58;2.10;99.90
32811;DHT22;65470;47.324;8.548;2023-02-28T04:18:23;2.00;99.90
32811;DHT22;65470;47.324;8.548;2023-02-28T04:20:49;2.00;99.90
32811;DHT22;65470;47.324;8.548;2023-02-28T04:23:14;2.00;99.90
32811;DHT22;65470;47.324;8.548;2023-02-28T04:25:40;2.00;99.90
32811;DHT22;65470;47.324;8.548;2023-02-28T04:28:06;2.00;99.90
32811;DHT22;65470;47.324;8.548;2023-02-28T04:30:32;2.00;99.90
32811;DHT22;65470;47.324;8.548;2023-02-28T04:32:58;2.00;99.90
32811;DHT22;65470;47.324;8.548;2023-02-28T04:35:23;2.00;99.90
32811;DHT22;65470;47.324;8.548;2023-02-28T04:37:49;2.00;99.90
32811;DHT22;65470;47.324;8.548;2023-02-28T04:40:15;2.10;99.90
32811;DHT22;65470;47.324;8.548;2023-02-28T04:42:41;2.00;99.90
32811;DHT22;65470;47.324;8.548;2023-02-28T04:45:07;2.00;99.90
32811;DHT22;65470;47.324;8.548;2023-02-28T04:47:35;2.00;99.90
32811;DHT22;65470;47.324;8.548;2023-02-28T04:50:01;2.00;99.90
32811;DHT22;65470;47.324;8.548;2023-02-28T04:52:27;2.10;99.90
32811;DHT22;65470;47.324;8.548;2023-02-28T04:54:53;2.00;99.90
32811;DHT22;65470;47.324;8.548;2023-02-28T04:57:18;2.10;99.90
32811;DHT22;65470;47.324;8.548;2023-02-28T04:59:44;2.10;99.90
32811;DHT22;65470;47.324;8.548;2023-02-28T05:02:10;2.10;99.90
32811;DHT22;65470;47.324;8.548;2023-02-28T05:04:36;2.00;99.90
32811;DHT22;65470;47.324;8.548;2023-02-28T05:07:02;2.10;99.90
32811;DHT22;65470;47.324;8.548;2023-02-28T05:09:28;2.00;99.90
32811;DHT22;65470;47.324;8.548;2023-02-28T05:11:55;2.00;99.90
32811;DHT22;65470;47.324;8.548;2023-02-28T05:14:21;2.10;99.90
32811;DHT22;65470;47.324;8.548;2023-02-28T05:16:46;2.10;99.90
32811;DHT22;65470;47.324;8.548;2023-02-28T05:19:12;2.10;99.90
32811;DHT22;65470;47.324;8.548;2023-02-28T05:24:34;2.10;99.90
32811;DHT22;65470;47.324;8.548;2023-02-28T05:26:59;2.10;99.90
32811;DHT22;65470;47.324;8.548;2023-02-28T05:29:25;2.20;99.90
32811;DHT22;65470;47.324;8.548;2023-02-28T05:31:51;2.20;99.90
32811;DHT22;65470;47.324;8.548;2023-02-28T05:34:16;2.20;99.90
32811;DHT22;65470;47.324;8.548;2023-02-28T05:36:42;2.20;99.90
32811;DHT22;65470;47.324;8.548;2023-02-28T05:39:08;2.10;99.90
32811;DHT22;65470;47.324;8.548;2023-02-28T05:41:39;2.10;99.90
32811;DHT22;65470;47.324;8.548;2023-02-28T05:44:04;2.20;99.90
32811;DHT22;65470;47.324;8.548;2023-02-28T05:46:30;2.10;99.90
32811;DHT22;65470;47.324;8.548;2023-02-28T05:48:56;2.20;99.90
32811;DHT22;65470;47.324;8.548;2023-02-28T05:51:23;2.10;99.90
32811;DHT22;65470;47.324;8.548;2023-02-28T05:53:48;2.00;99.90
32811;DHT22;65470;47.324;8.548;2023-02-28T05:56:15;1.90;99.90
32811;DHT22;65470;47.324;8.548;2023-02-28T05:58:40;2.00;99.90
32811;DHT22;65470;47.324;8.548;2023-02-28T06:01:39;2.00;99.90
32811;DHT22;65470;47.324;8.548;2023-02-28T06:04:07;2.00;99.90
32811;DHT22;65470;47.324;8.548;2023-02-28T06:06:33;2.00;99.90
32811;DHT22;65470;47.324;8.548;2023-02-28T06:09:00;2.00;99.90
32811;DHT22;65470;47.324;8.548;2023-02-28T06:11:26;2.00;99.90
32811;DHT22;65470;47.324;8.548;2023-02-28T06:14:00;2.10;99.90
32811;DHT22;65470;47.324;8.548;2023-02-28T06:16:28;2.10;99.90
32811;DHT22;65470;47.324;8.548;2023-02-28T06:18:54;2.10;99.90
32811;DHT22;65470;47.324;8.548;2023-02-28T06:21:21;2.20;99.90
32811;DHT22;65470;47.324;8.548;2023-02-28T06:23:47;2.30;99.90
32811;DHT22;65470;47.324;8.548;2023-02-28T06:26:13;2.30;99.90
32811;DHT22;65470;47.324;8.548;2023-02-28T06:28:39;2.30;99.90
32811;DHT22;65470;47.324;8.548;2023-02-28T06:31:09;2.40;99.90
32811;DHT22;65470;47.324;8.548;2023-02-28T06:33:36;2.30;99.90
32811;DHT22;65470;47.324;8.548;2023-02-28T06:36:02;2.20;99.90
32811;DHT22;65470;47.324;8.548;2023-02-28T06:38:28;2.20;99.90
32811;DHT22;65470;47.324;8.548;2023-02-28T06:40:57;2.30;99.90
32811;DHT22;65470;47.324;8.548;2023-02-28T06:43:24;2.30;99.90
32811;DHT22;65470;47.324;8.548;2023-02-28T06:45:53;2.30;99.90
32811;DHT22;65470;47.324;8.548;2023-02-28T06:48:19;2.30;99.90
32811;DHT22;65470;47.324;8.548;2023-02-28T06:50:44;2.30;99.90
32811;DHT22;65470;47.324;8.548;2023-02-28T06:53:10;2.30;99.90
32811;DHT22;65470;47.324;8.548;2023-02-28T06:55:37;2.20;99.90
32811;DHT22;65470;47.324;8.548;2023-02-28T06:58:03;2.30;99.90
32811;DHT22;65470;47.324;8.548;2023-02-28T07:00:38;2.30;99.90
32811;DHT22;65470;47.324;8.548;2023-02-28T07:03:04;2.40;99.90
32811;DHT22;65470;47.324;8.548;2023-02-28T07:05:30;2.40;99.90
32811;DHT22;65470;47.324;8.548;2023-02-28T07:07:55;2.50;99.90
32811;DHT22;65470;47.324;8.548;2023-02-28T07:10:22;2.60;99.90
32811;DHT22;65470;47.324;8.548;2023-02-28T07:12:47;2.50;99.90
32811;DHT22;65470;47.324;8.548;2023-02-28T07:15:13;2.50;99.90
32811;DHT22;65470;47.324;8.548;2023-02-28T07:17:39;2.50;99.90
32811;DHT22;65470;47.324;8.548;2023-02-28T07:20:05;2.50;99.90
32811;DHT22;65470;47.324;8.548;2023-02-28T07:22:30;2.50;99.90
32811;DHT22;65470;47.324;8.548;2023-02-28T07:24:56;2.60;99.90
32811;DHT22;65470;47.324;8.548;2023-02-28T07:27:22;2.70;99.90
32811;DHT22;65470;47.324;8.548;2023-02-28T07:29:51;2.70;99.90
32811;DHT22;65470;47.324;8.548;2023-02-28T07:32:17;2.70;99.90
32811;DHT22;65470;47.324;8.548;2023-02-28T07:34:44;2.80;99.90
32811;DHT22;65470;47.324;8.548;2023-02-28T07:37:10;2.80;99.90
32811;DHT22;65470;47.324;8.548;2023-02-28T07:39:35;2.80;99.90
32811;DHT22;65470;47.324;8.548;2023-02-28T07:42:04;2.90;99.90
32811;DHT22;65470;47.324;8.548;2023-02-28T07:44:31;2.90;99.90
32811;DHT22;65470;47.324;8.548;2023-02-28T07:46:57;2.90;99.90
32811;DHT22;65470;47.324;8.548;2023-02-28T07:49:23;2.80;99.90
32811;DHT22;65470;47.324;8.548;2023-02-28T07:51:49;2.80;99.90
32811;DHT22;65470;47.324;8.548;2023-02-28T07:54:14;2.80;99.90
32811;DHT22;65470;47.324;8.548;2023-02-28T07:56:40;2.90;99.90
32811;DHT22;65470;47.324;8.548;2023-02-28T07:59:05;2.80;99.90
32811;DHT22;65470;47.324;8.548;2023-02-28T08:01:31;2.90;99.90
32811;DHT22;65470;47.324;8.548;2023-02-28T08:03:57;3.00;99.90
32811;DHT22;65470;47.324;8.548;2023-02-28T08:06:24;3.00;99.90
32811;DHT22;65470;47.324;8.548;2023-02-28T08:08:50;3.00;99.90
32811;DHT22;65470;47.324;8.548;2023-02-28T08:11:17;3.00;99.90
32811;DHT22;65470;47.324;8.548;2023-02-28T08:13:43;3.00;99.90
32811;DHT22;65470;47.324;8.548;2023-02-28T08:16:10;3.00;99.90
32811;DHT22;65470;47.324;8.548;2023-02-28T08:18:36;3.10;99.90
32811;DHT22;65470;47.324;8.548;2023-02-28T08:21:11;3.10;99.90
32811;DHT22;65470;47.324;8.548;2023-02-28T08:23:38;3.20;99.90
32811;DHT22;65470;47.324;8.548;2023-02-28T08:26:04;3.30;99.90
32811;DHT22;65470;47.324;8.548;2023-02-28T08:28:30;3.20;99.90
32811;DHT22;65470;47.324;8.548;2023-02-28T08:30:55;3.20;99.90
32811;DHT22;65470;47.324;8.548;2023-02-28T08:33:22;3.20;99.90
32811;DHT22;65470;47.324;8.548;2023-02-28T08:35:48;3.20;99.90
32811;DHT22;65470;47.324;8.548;2023-02-28T08:38:13;3.20;99.90
32811;DHT22;65470;47.324;8.548;2023-02-28T08:40:39;3.20;99.90
32811;DHT22;65470;47.324;8.548;2023-02-28T08:43:05;3.30;99.90
32811;DHT22;65470;47.324;8.548;2023-02-28T08:45:31;3.30;99.90
32811;DHT22;65470;47.324;8.548;2023-02-28T08:47:57;3.40;99.90
32811;DHT22;65470;47.324;8.548;2023-02-28T08:50:22;3.40;99.90
32811;DHT22;65470;47.324;8.548;2023-02-28T08:52:48;3.40;99.90
32811;DHT22;65470;47.324;8.548;2023-02-28T08:55:14;3.50;99.90
32811;DHT22;65470;47.324;8.548;2023-02-28T08:57:39;3.40;99.90
32811;DHT22;65470;47.324;8.548;2023-02-28T09:00:05;3.40;99.90
32811;DHT22;65470;47.324;8.548;2023-02-28T09:02:31;3.50;99.90
32811;DHT22;65470;47.324;8.548;2023-02-28T09:04:58;3.70;99.90
32811;DHT22;65470;47.324;8.548;2023-02-28T09:07:24;3.80;99.90
32811;DHT22;65470;47.324;8.548;2023-02-28T09:09:50;3.60;99.90
32811;DHT22;65470;47.324;8.548;2023-02-28T09:12:24;3.70;99.90
32811;DHT22;65470;47.324;8.548;2023-02-28T09:14:50;3.90;99.90
32811;DHT22;65470;47.324;8.548;2023-02-28T09:17:16;4.10;99.90
32811;DHT22;65470;47.324;8.548;2023-02-28T09:19:42;3.90;99.90
32811;DHT22;65470;47.324;8.548;2023-02-28T09:22:09;3.90;99.90
32811;DHT22;65470;47.324;8.548;2023-02-28T09:24:36;4.00;99.90
32811;DHT22;65470;47.324;8.548;2023-02-28T09:27:02;4.10;99.90
32811;DHT22;65470;47.324;8.548;2023-02-28T09:29:28;4.20;99.90
32811;DHT22;65470;47.324;8.548;2023-02-28T09:31:54;4.20;99.90
32811;DHT22;65470;47.324;8.548;2023-02-28T09:34:20;4.40;99.90
32811;DHT22;65470;47.324;8.548;2023-02-28T09:36:45;4.40;99.90
32811;DHT22;65470;47.324;8.548;2023-02-28T09:39:11;4.40;99.90
32811;DHT22;65470;47.324;8.548;2023-02-28T09:41:41;4.30;99.90
32811;DHT22;65470;47.324;8.548;2023-02-28T09:47:10;4.50;99.90
32811;DHT22;65470;47.324;8.548;2023-02-28T09:49:41;4.60;99.90
32811;DHT22;65470;47.324;8.548;2023-02-28T09:52:12;4.70;99.90
32811;DHT22;65470;47.324;8.548;2023-02-28T09:54:39;4.80;99.90
32811;DHT22;65470;47.324;8.548;2023-02-28T09:57:07;4.90;99.90
32811;DHT22;65470;47.324;8.548;2023-02-28T10:05:28;5.00;98.60
32811;DHT22;65470;47.324;8.548;2023-02-28T10:08:19;4.90;99.90
32811;DHT22;65470;47.324;8.548;2023-02-28T10:11:02;5.10;98.00
32811;DHT22;65470;47.324;8.548;2023-02-28T10:16:42;5.00;98.00
32811;DHT22;65470;47.324;8.548;2023-02-28T10:19:16;4.90;97.30
32811;DHT22;65470;47.324;8.548;2023-02-28T10:21:49;4.80;97.60
32811;DHT22;65470;47.324;8.548;2023-02-28T10:27:24;4.90;99.80
32811;DHT22;65470;47.324;8.548;2023-02-28T10:29:52;5.00;98.60
32811;DHT22;65470;47.324;8.548;2023-02-28T10:32:24;5.10;99.50
32811;DHT22;65470;47.324;8.548;2023-02-28T10:34:57;5.50;97.40
32811;DHT22;65470;47.324;8.548;2023-02-28T10:37:24;5.30;96.50
32811;DHT22;65470;47.324;8.548;2023-02-28T10:39:50;5.30;97.20
32811;DHT22;65470;47.324;8.548;2023-02-28T10:42:23;5.10;97.60
32811;DHT22;65470;47.324;8.548;2023-02-28T10:45:14;5.00;98.00
32811;DHT22;65470;47.324;8.548;2023-02-28T10:48:01;5.20;97.90
32811;DHT22;65470;47.324;8.548;2023-02-28T10:50:31;5.30;98.40
32811;DHT22;65470;47.324;8.548;2023-02-28T10:53:31;5.10;97.70
32811;DHT22;65470;47.324;8.548;2023-02-28T11:01:23;4.90;98.30
32811;DHT22;65470;47.324;8.548;2023-02-28T11:03:50;4.90;98.10
32811;DHT22;65470;47.324;8.548;2023-02-28T11:06:31;5.20;98.50
32811;DHT22;65470;47.324;8.548;2023-02-28T11:09:14;5.30;98.00
32811;DHT22;65470;47.324;8.548;2023-02-28T11:11:45;5.10;97.70
32811;DHT22;65470;47.324;8.548;2023-02-28T11:14:25;5.40;97.40
32811;DHT22;65470;47.324;8.548;2023-02-28T11:16:52;5.60;97.00
32811;DHT22;65470;47.324;8.548;2023-02-28T11:19:40;5.70;96.10
32811;DHT22;65470;47.324;8.548;2023-02-28T11:22:09;5.70;94.60
32811;DHT22;65470;47.324;8.548;2023-02-28T11:24:49;5.40;95.80
32811;DHT22;65470;47.324;8.548;2023-02-28T11:29:57;5.60;95.50
32811;DHT22;65470;47.324;8.548;2023-02-28T11:32:24;5.50;95.70
32811;DHT22;65470;47.324;8.548;2023-02-28T11:37:34;5.60;95.70
32811;DHT22;65470;47.324;8.548;2023-02-28T11:40:00;5.60;94.90
32811;DHT22;65470;47.324;8.548;2023-02-28T11:42:47;5.50;95.90
32811;DHT22;65470;47.324;8.548;2023-02-28T11:48:21;5.60;96.00
32811;DHT22;65470;47.324;8.548;2023-02-28T11:53:50;5.80;93.40
32811;DHT22;65470;47.324;8.548;2023-02-28T11:56:22;5.80;95.00
32811;DHT22;65470;47.324;8.548;2023-02-28T12:16:29;5.60;94.20
32811;DHT22;65470;47.324;8.548;2023-02-28T12:26:48;5.50;94.00
32811;DHT22;65470;47.324;8.548;2023-02-28T12:29:27;5.70;94.00
32811;DHT22;65470;47.324;8.548;2023-02-28T12:32:14;5.70;94.30
32811;DHT22;65470;47.324;8.548;2023-02-28T12:34:46;6.00;94.30
32811;DHT22;65470;47.324;8.548;2023-02-28T12:38:22;6.10;94.20
32811;DHT22;65470;47.324;8.548;2023-02-28T12:40:26;6.00;93.40
32811;DHT22;65470;47.324;8.548;2023-02-28T12:42:59;6.00;92.60
32811;DHT22;65470;47.324;8.548;2023-02-28T12:45:46;6.10;93.40
32811;DHT22;65470;47.324;8.548;2023-02-28T12:48:26;5.90;93.20
32811;DHT22;65470;47.324;8.548;2023-02-28T12:50:54;5.90;93.60
32811;DHT22;65470;47.324;8.548;2023-02-28T12:53:27;6.00;94.20
32811;DHT22;65470;47.324;8.548;2023-02-28T12:56:03;5.80;93.80
32811;DHT22;65470;47.324;8.548;2023-02-28T13:10:00;5.60;94.20
32811;DHT22;65470;47.324;8.548;2023-02-28T13:12:28;5.70;94.80
32811;DHT22;65470;47.324;8.548;2023-02-28T13:15:08;5.80;94.60
32811;DHT22;65470;47.324;8.548;2023-02-28T13:17:40;5.80;94.20
32811;DHT22;65470;47.324;8.548;2023-02-28T13:20:18;5.80;94.30
32811;DHT22;65470;47.324;8.548;2023-02-28T13:22:49;5.70;94.60
32811;DHT22;65470;47.324;8.548;2023-02-28T13:27:52;5.70;93.90
32811;DHT22;65470;47.324;8.548;2023-02-28T13:33:35;5.70;94.30
32811;DHT22;65470;47.324;8.548;2023-02-28T13:44:03;5.60;93.90
32811;DHT22;65470;47.324;8.548;2023-02-28T13:46:29;5.30;94.80
32811;DHT22;65470;47.324;8.548;2023-02-28T13:48:55;5.30;95.50
32811;DHT22;65470;47.324;8.548;2023-02-28T14:02:37;5.40;94.40
32811;DHT22;65470;47.324;8.548;2023-02-28T14:05:20;5.20;94.90
32811;DHT22;65470;47.324;8.548;2023-02-28T14:08:14;5.20;95.60
32811;DHT22;65470;47.324;8.548;2023-02-28T14:10:45;5.20;95.50
32811;DHT22;65470;47.324;8.548;2023-02-28T14:13:36;5.30;96.50
32811;DHT22;65470;47.324;8.548;2023-02-28T14:16:01;5.10;96.10
32811;DHT22;65470;47.324;8.548;2023-02-28T14:18:35;4.90;96.10
32811;DHT22;65470;47.324;8.548;2023-02-28T14:21:16;4.70;96.90
32811;DHT22;65470;47.324;8.548;2023-02-28T14:27:00;4.40;98.30
32811;DHT22;65470;47.324;8.548;2023-02-28T14:37:48;4.60;98.80
32811;DHT22;65470;47.324;8.548;2023-02-28T14:40:30;4.60;98.00
32811;DHT22;65470;47.324;8.548;2023-02-28T14:43:00;4.50;99.10
32811;DHT22;65470;47.324;8.548;2023-02-28T14:45:30;4.40;99.40
32811;DHT22;65470;47.324;8.548;2023-02-28T14:47:57;4.50;99.10
32811;DHT22;65470;47.324;8.548;2023-02-28T14:50:35;4.50;98.60
32811;DHT22;65470;47.324;8.548;2023-02-28T14:53:02;4.50;98.90
32811;DHT22;65470;47.324;8.548;2023-02-28T14:55:34;4.40;99.80
32811;DHT22;65470;47.324;8.548;2023-02-28T14:58:03;4.40;99.60
32811;DHT22;65470;47.324;8.548;2023-02-28T15:00:33;4.40;99.20
32811;DHT22;65470;47.324;8.548;2023-02-28T15:03:11;4.40;99.60
32811;DHT22;65470;47.324;8.548;2023-02-28T15:05:42;4.50;99.40
32811;DHT22;65470;47.324;8.548;2023-02-28T15:08:16;4.30;99.40
32811;DHT22;65470;47.324;8.548;2023-02-28T15:10:54;4.30;99.90
32811;DHT22;65470;47.324;8.548;2023-02-28T15:13:21;4.30;99.90
32811;DHT22;65470;47.324;8.548;2023-02-28T15:18:43;4.20;99.90
32811;DHT22;65470;47.324;8.548;2023-02-28T15:21:29;4.20;99.90
32811;DHT22;65470;47.324;8.548;2023-02-28T15:24:03;4.20;99.90
32811;DHT22;65470;47.324;8.548;2023-02-28T15:26:36;4.20;99.90
32811;DHT22;65470;47.324;8.548;2023-02-28T15:29:10;4.10;99.90
32811;DHT22;65470;47.324;8.548;2023-02-28T15:32:06;4.10;99.90
32811;DHT22;65470;47.324;8.548;2023-02-28T15:34:39;4.00;99.90
32811;DHT22;65470;47.324;8.548;2023-02-28T15:37:45;3.90;99.90
32811;DHT22;65470;47.324;8.548;2023-02-28T15:42:36;3.80;99.90
32811;DHT22;65470;47.324;8.548;2023-02-28T15:45:02;3.80;99.90
32811;DHT22;65470;47.324;8.548;2023-02-28T15:47:29;3.70;99.90
32811;DHT22;65470;47.324;8.548;2023-02-28T15:52:43;3.70;99.90
32811;DHT22;65470;47.324;8.548;2023-02-28T15:55:28;3.80;99.90
32811;DHT22;65470;47.324;8.548;2023-02-28T15:58:00;3.70;99.90
32811;DHT22;65470;47.324;8.548;2023-02-28T16:00:28;3.80;99.90
32811;DHT22;65470;47.324;8.548;2023-02-28T16:02:54;3.80;99.90
32811;DHT22;65470;47.324;8.548;2023-02-28T16:08:06;3.60;99.90
32811;DHT22;65470;47.324;8.548;2023-02-28T16:10:36;3.60;99.90
32811;DHT22;65470;47.324;8.548;2023-02-28T16:13:02;3.60;99.90
32811;DHT22;65470;47.324;8.548;2023-02-28T16:15:31;3.60;99.90
32811;DHT22;65470;47.324;8.548;2023-02-28T16:18:00;3.60;99.90
32811;DHT22;65470;47.324;8.548;2023-02-28T16:20:28;3.60;99.90
32811;DHT22;65470;47.324;8.548;2023-02-28T16:22:54;3.60;99.90
32811;DHT22;65470;47.324;8.548;2023-02-28T16:25:34;3.50;99.90
32811;DHT22;65470;47.324;8.548;2023-02-28T16:28:00;3.40;99.90
32811;DHT22;65470;47.324;8.548;2023-02-28T16:30:28;3.40;99.90
32811;DHT22;65470;47.324;8.548;2023-02-28T16:32:57;3.40;99.90
32811;DHT22;65470;47.324;8.548;2023-02-28T16:35:23;3.40;99.90
32811;DHT22;65470;47.324;8.548;2023-02-28T16:37:51;3.40;99.90
32811;DHT22;65470;47.324;8.548;2023-02-28T16:40:19;3.50;99.90
32811;DHT22;65470;47.324;8.548;2023-02-28T16:42:48;3.50;99.90
32811;DHT22;65470;47.324;8.548;2023-02-28T16:45:25;3.60;99.90
32811;DHT22;65470;47.324;8.548;2023-02-28T16:47:51;3.60;99.90
32811;DHT22;65470;47.324;8.548;2023-02-28T16:50:20;3.50;99.90
32811;DHT22;65470;47.324;8.548;2023-02-28T16:52:46;3.60;99.90
32811;DHT22;65470;47.324;8.548;2023-02-28T16:55:12;3.50;99.90
32811;DHT22;65470;47.324;8.548;2023-02-28T16:57:38;3.50;99.90
32811;DHT22;65470;47.324;8.548;2023-02-28T17:00:07;3.40;99.90
32811;DHT22;65470;47.324;8.548;2023-02-28T17:02:34;3.40;99.90
32811;DHT22;65470;47.324;8.548;2023-02-28T17:05:00;3.30;99.90
32811;DHT22;65470;47.324;8.548;2023-02-28T17:07:25;3.30;99.90
32811;DHT22;65470;47.324;8.548;2023-02-28T17:09:51;3.30;99.90
32811;DHT22;65470;47.324;8.548;2023-02-28T17:12:17;3.30;99.90
32811;DHT22;65470;47.324;8.548;2023-02-28T17:14:43;3.30;99.90
32811;DHT22;65470;47.324;8.548;2023-02-28T17:17:17;3.30;99.90
32811;DHT22;65470;47.324;8.548;2023-02-28T17:19:43;3.40;99.90
32811;DHT22;65470;47.324;8.548;2023-02-28T17:22:09;3.40;99.90
32811;DHT22;65470;47.324;8.548;2023-02-28T17:24:35;3.40;99.90
32811;DHT22;65470;47.324;8.548;2023-02-28T17:27:01;3.50;99.90
32811;DHT22;65470;47.324;8.548;2023-02-28T17:29:27;3.50;99.90
32811;DHT22;65470;47.324;8.548;2023-02-28T17:31:52;3.50;99.90
32811;DHT22;65470;47.324;8.548;2023-02-28T17:34:18;3.50;99.90
32811;DHT22;65470;47.324;8.548;2023-02-28T17:36:50;3.30;99.90
32811;DHT22;65470;47.324;8.548;2023-02-28T17:39:17;3.40;99.90
32811;DHT22;65470;47.324;8.548;2023-02-28T17:41:52;3.30;99.90
32811;DHT22;65470;47.324;8.548;2023-02-28T17:44:18;3.40;99.90
32811;DHT22;65470;47.324;8.548;2023-02-28T17:46:45;3.30;99.90
32811;DHT22;65470;47.324;8.548;2023-02-28T17:49:11;3.30;99.90
32811;DHT22;65470;47.324;8.548;2023-02-28T17:51:36;3.30;99.90
32811;DHT22;65470;47.324;8.548;2023-02-28T17:54:02;3.40;99.90
32811;DHT22;65470;47.324;8.548;2023-02-28T17:56:28;3.40;99.90
32811;DHT22;65470;47.324;8.548;2023-02-28T17:58:55;3.30;99.90
32811;DHT22;65470;47.324;8.548;2023-02-28T18:01:22;3.20;99.90
32811;DHT22;65470;47.324;8.548;2023-02-28T18:03:49;3.20;99.90
32811;DHT22;65470;47.324;8.548;2023-02-28T18:06:19;3.20;99.90
32811;DHT22;65470;47.324;8.548;2023-02-28T18:08:47;3.20;99.90
32811;DHT22;65470;47.324;8.548;2023-02-28T18:11:13;3.30;99.90
32811;DHT22;65470;47.324;8.548;2023-02-28T18:13:50;3.20;99.90
32811;DHT22;65470;47.324;8.548;2023-02-28T18:16:17;3.20;99.90
32811;DHT22;65470;47.324;8.548;2023-02-28T18:18:44;3.20;99.90
32811;DHT22;65470;47.324;8.548;2023-02-28T18:21:12;3.20;99.90
32811;DHT22;65470;47.324;8.548;2023-02-28T18:23:38;3.20;99.90
32811;DHT22;65470;47.324;8.548;2023-02-28T18:26:14;3.20;99.90
32811;DHT22;65470;47.324;8.548;2023-02-28T18:28:40;3.20;99.90
32811;DHT22;65470;47.324;8.548;2023-02-28T18:31:11;3.20;99.90
32811;DHT22;65470;47.324;8.548;2023-02-28T18:33:37;3.30;99.90